Estación de Río Bueno

Ultimos registro cada 15 minutos 71
Estación Fecha / Hora Temperatura Humedad Lluvia Velocidad Dirección Radiación Presion
71 Río Bueno 09-05-2026 17:30 12,7 61,6 0 0,3 190 20,6 1023,5
70 Río Bueno 09-05-2026 17:15 13,7 58,3 0 0,7 201 81,9 1023,5
69 Río Bueno 09-05-2026 17:00 14,2 55,4 0 1 205 125,6 1023,4
68 Río Bueno 09-05-2026 16:45 14,8 53,9 0 0,7 202 163,1 1023,4
67 Río Bueno 09-05-2026 16:30 14,9 55,2 0 1 191 191,9 1023,3
66 Río Bueno 09-05-2026 16:15 14,8 53,1 0 1 215 223,1 1023,5
65 Río Bueno 09-05-2026 16:00 15,3 53 0 1 234 256,9 1023,5
64 Río Bueno 09-05-2026 15:45 14,9 54 0 1,7 234 290,6 1023,6
63 Río Bueno 09-05-2026 15:30 15,1 57,3 0 1 234 330,6 1023,5
62 Río Bueno 09-05-2026 15:15 15,1 53,2 0 1 229 368,1 1023,5
61 Río Bueno 09-05-2026 15:00 14,8 56,4 0 0,7 226 286,9 1023,5
60 Río Bueno 09-05-2026 14:45 15,3 56,9 0 1 211 376,9 1023,7
59 Río Bueno 09-05-2026 14:30 14,9 57 0 1,3 202 445,6 1024
58 Río Bueno 09-05-2026 14:15 15,1 60,9 0 1,3 202 448,1 1024
57 Río Bueno 09-05-2026 14:00 14,3 66,3 0 1 241 495,6 1024,5
56 Río Bueno 09-05-2026 13:45 13,9 65,7 0 1 223 433,1 1024,5
55 Río Bueno 09-05-2026 13:30 13,9 68,4 0 0,7 204 518,1 1024,9
54 Río Bueno 09-05-2026 13:15 13,1 72,2 0 1 215 504,4 1025,2
53 Río Bueno 09-05-2026 13:00 11,7 74 0 1,3 240 505,6 1025,6
52 Río Bueno 09-05-2026 12:45 11,4 75,7 0 1,3 226 500,6 1025,8
51 Río Bueno 09-05-2026 12:30 11,3 77,1 0 0,7 219 509,4 1026
50 Río Bueno 09-05-2026 12:15 11,2 75,2 0 0,3 213 504,4 1026,1
49 Río Bueno 09-05-2026 12:00 10,1 82,3 0 0,3 295 475,6 1026,2
48 Río Bueno 09-05-2026 11:45 8 98,1 0 0,7 192 236,9 1026,6
47 Río Bueno 09-05-2026 11:30 6,7 98,2 0 0,7 177 388,1 1026,8
46 Río Bueno 09-05-2026 11:15 6,1 98,1 0 0,3 175 408,1 1026,8
45 Río Bueno 09-05-2026 11:00 5,2 97,9 0 0,3 152 160,6 1026,5
44 Río Bueno 09-05-2026 10:45 4,4 97,4 0 0,3 105 211,9 1026,5
43 Río Bueno 09-05-2026 10:30 4,1 97,3 0 0,3 58 203,1 1026,6
42 Río Bueno 09-05-2026 10:15 3,1 97 0 0,3 46 216,9 1026,7
41 Río Bueno 09-05-2026 10:00 2,8 97,5 0 0 49 166,9 1026,7
40 Río Bueno 09-05-2026 09:45 2,3 97,4 0 0,3 48 163,1 1026,7
39 Río Bueno 09-05-2026 09:30 1,3 97,4 0 0 48 125,6 1026,7
38 Río Bueno 09-05-2026 09:15 0,6 97,4 0 0 48 96,9 1026,9
37 Río Bueno 09-05-2026 09:00 0,3 97,3 0 0 48 78,1 1026,9
36 Río Bueno 09-05-2026 08:45 0,1 97,3 0 0 55 50,6 1026,6
35 Río Bueno 09-05-2026 08:30 0 97,2 0 0 55 34,4 1026,7
34 Río Bueno 09-05-2026 08:15 -0,2 97,2 0 0 55 24,4 1026,8
33 Río Bueno 09-05-2026 08:00 -0,4 97,1 0 0,3 39 6,9 1026,8
32 Río Bueno 09-05-2026 07:45 -0,6 97 0 0,3 49 1,9 1026,6
31 Río Bueno 09-05-2026 07:30 -0,5 96,9 0 0,3 44 0,6 1026,4
30 Río Bueno 09-05-2026 07:15 -0,6 96,8 0 0,3 31 0,6 1026,5
29 Río Bueno 09-05-2026 07:00 -0,5 96,8 0 0 38 0,6 1026,5
28 Río Bueno 09-05-2026 06:45 -0,4 96,7 0 0 38 0,6 1026,6
27 Río Bueno 09-05-2026 06:30 -0,4 96,6 0 0 38 0,6 1026,6
26 Río Bueno 09-05-2026 06:15 -0,2 96,6 0 0 38 0,6 1026,7
25 Río Bueno 09-05-2026 06:00 -0,3 96,5 0 0 37 0,6 1026,7
24 Río Bueno 09-05-2026 05:45 -0,5 96,5 0 0 28 0,6 1026,8
23 Río Bueno 09-05-2026 05:30 -0,1 96,6 0 0 28 0,6 1026,5
22 Río Bueno 09-05-2026 05:15 -0,5 96,5 0 0 28 0,6 1026,6
21 Río Bueno 09-05-2026 05:00 -0,4 96,5 0 0 28 0,6 1026,6
20 Río Bueno 09-05-2026 04:45 -0,2 96,4 0 0 28 0,6 1026,6
19 Río Bueno 09-05-2026 04:30 0,3 96,7 0 0,3 118 0,6 1026,9
18 Río Bueno 09-05-2026 04:15 0,1 96,4 0 0,3 42 0,6 1026,6
17 Río Bueno 09-05-2026 04:00 0,1 96,3 0 0 32 0,6 1026,9
16 Río Bueno 09-05-2026 03:45 -0,2 96,2 0 0 32 0,6 1026,8
15 Río Bueno 09-05-2026 03:30 -0,6 96,1 0 0 32 0,6 1027,1
14 Río Bueno 09-05-2026 03:15 0,7 96,7 0 0 32 0,6 1027,3
13 Río Bueno 09-05-2026 03:00 0,2 96 0 0 32 0,6 1027,5
12 Río Bueno 09-05-2026 02:45 0,4 95,9 0 0,3 34 0,6 1027,4
11 Río Bueno 09-05-2026 02:30 0,4 95,8 0 0 13 0,6 1027,5
10 Río Bueno 09-05-2026 02:15 0,8 95,6 0 0 347 0,6 1027,5
9 Río Bueno 09-05-2026 02:00 0,3 95,1 0 0,3 0 0,6 1027,7
8 Río Bueno 09-05-2026 01:45 1,5 95 0 0,3 22 0,6 1027,7
7 Río Bueno 09-05-2026 01:30 1,6 95,3 0 0 254 0,6 1027,7
6 Río Bueno 09-05-2026 01:15 1,3 94,7 0 0 254 0,6 1027,7
5 Río Bueno 09-05-2026 01:00 0,9 94,4 0 0 254 0,6 1027,6
4 Río Bueno 09-05-2026 00:45 1,1 94,2 0 0 254 0,6 1027,6
3 Río Bueno 09-05-2026 00:30 1,7 94,4 0 0 254 0,6 1027,5
2 Río Bueno 09-05-2026 00:15 2,4 94,6 0 0 254 0,6 1027,4
1 Río Bueno 09-05-2026 00:00 2,6 94,9 0 0 254 0,6 1027,4